This is the latest recevied weather packets stored in our database for station/object WC4PEM-4. If no packets are shown the sender has not sent any weather packets the latest 10 day(s).
| Time | Temp. | Humidity | Pressure | Rain* | Wind** | Luminosity | Snow |
|---|---|---|---|---|---|---|---|
| 1788116908 | 28.33° C | 75% | 1016.7 hPa | 0 mm | - | - | - |
| 1788116783 | 28.33° C | 75% | 1016.7 hPa | 0 mm | - | - | - |
| 1788116483 | 28.33° C | 75% | 1016.7 hPa | 0 mm | - | - | - |
| 1788116184 | 28.33° C | 76% | 1016.9 hPa | 0 mm | - | - | - |
| 1788115883 | 28.89° C | 75% | 1016.9 hPa | 0 mm | - | - | - |
| 1788115583 | 29.44° C | 73% | 1017.1 hPa | 0 mm | - | - | - |
| 1788115283 | 30.56° C | 69% | 1017.1 hPa | 0 mm | - | - | - |
| 1788114983 | 32.78° C | 61% | 1016.8 hPa | 0 mm | - | - | - |
| 1788114683 | 33.33° C | 59% | 1016.6 hPa | 0 mm | - | - | - |
| 1788114542 | 33.33° C | 61% | 1016.6 hPa | 0 mm | - | - | - |
| 1788114383 | 33.33° C | 61% | 1016.6 hPa | 0 mm | - | - | - |
| 1788114083 | 33.33° C | 58% | 1016.5 hPa | 0 mm | - | - | - |
| 1788113783 | 33.33° C | 59% | 1016.6 hPa | 0 mm | - | - | - |
| 1788113483 | 33.33° C | 57% | 1016.6 hPa | 0 mm | - | - | - |
| 1788113183 | 33.33° C | 57% | 1016.6 hPa | 0 mm | - | - | - |
| 1788112883 | 33.33° C | 59% | 1016.8 hPa | 0 mm | - | - | - |
| 1788112729 | 25° C | 90% | 1017.2 hPa | 13.21 mm | - | - | - |
| 1788112583 | 32.78° C | 59% | 1016.7 hPa | 0 mm | - | - | - |
| 1788112283 | 32.78° C | 59% | 1016.8 hPa | 0 mm | - | - | - |
| 1788111983 | 32.78° C | 60% | 1017 hPa | 0 mm | - | - | - |
| 1788111683 | 32.78° C | 60% | 1016.9 hPa | 0 mm | - | - | - |
| 1788111383 | 32.78° C | 61% | 1017 hPa | 0 mm | - | - | - |
| 1788111083 | 32.78° C | 62% | 1017.2 hPa | 0 mm | - | - | - |
| 1788110783 | 32.22° C | 63% | 1017.3 hPa | 0 mm | - | - | - |
| 1788110483 | 32.22° C | 64% | 1017.2 hPa | 0 mm | - | - | - |
* Rain latest hour (hover to see other rain measurements)
** Current wind speed in m/s (hover to see current wind gust speed)